createdAt,value
2023-04-02T00:01:50.779Z,97.79
2023-04-02T00:04:22.680Z,98.06
2023-04-02T00:06:54.267Z,97.84
2023-04-02T00:09:29.714Z,97.88
2023-04-02T00:11:56.977Z,97.77
2023-04-02T00:14:27.613Z,97.74
2023-04-02T00:16:55.976Z,97.71
2023-04-02T00:19:31.920Z,97.84
2023-04-02T00:22:00.407Z,97.69
2023-04-02T00:24:27.099Z,97.72
2023-04-02T00:26:54.396Z,97.49
2023-04-02T00:29:21.284Z,97.48
2023-04-02T00:31:50.301Z,97.07
2023-04-02T00:34:33.360Z,97.25
2023-04-02T00:37:00.051Z,97.08
2023-04-02T00:39:30.593Z,97.10
2023-04-02T00:42:04.772Z,96.86
2023-04-02T00:44:38.427Z,96.83
2023-04-02T00:47:14.883Z,96.96
2023-04-02T00:49:41.992Z,97.00
2023-04-02T00:52:13.834Z,96.92
2023-04-02T00:55:00.997Z,96.93
2023-04-02T00:57:28.108Z,96.78
2023-04-02T01:00:19.109Z,96.77
2023-04-02T01:03:16.154Z,96.68
2023-04-02T01:05:48.233Z,96.76
2023-04-02T01:08:57.537Z,96.50
2023-04-02T01:11:41.932Z,96.41
2023-04-02T01:14:36.006Z,96.71
2023-04-02T01:17:11.240Z,96.53
2023-04-02T01:19:58.489Z,96.27
2023-04-02T01:22:42.561Z,96.98
2023-04-02T01:25:17.676Z,96.63
2023-04-02T01:27:52.354Z,96.20
2023-04-02T01:30:19.874Z,96.59
2023-04-02T01:32:47.261Z,96.33
2023-04-02T01:35:14.039Z,96.13
2023-04-02T01:37:52.581Z,95.68
2023-04-02T01:40:35.988Z,95.66
2023-04-02T01:43:26.891Z,96.05
2023-04-02T01:45:53.289Z,95.88
2023-04-02T01:48:24.575Z,95.47
2023-04-02T01:50:52.822Z,95.66
2023-04-02T01:53:21.601Z,95.36
2023-04-02T01:55:53.105Z,95.35
2023-04-02T01:58:26.099Z,94.89
2023-04-02T02:01:09.327Z,94.60
2023-04-02T02:03:36.613Z,94.66
2023-04-02T02:06:05.624Z,94.78
2023-04-02T02:09:01.263Z,94.59
2023-04-02T02:11:30.601Z,94.70
2023-04-02T02:14:02.525Z,94.92
2023-04-02T02:16:31.946Z,94.95
2023-04-02T02:19:02.509Z,94.61
2023-04-02T02:21:28.817Z,94.47
2023-04-02T02:23:56.310Z,94.49
2023-04-02T02:26:27.096Z,94.50
2023-04-02T02:28:56.739Z,94.75
2023-04-02T02:31:29.925Z,94.49
2023-04-02T02:34:02.381Z,94.79
2023-04-02T02:36:40.044Z,94.45
2023-04-02T02:39:20.277Z,94.27
2023-04-02T02:41:56.174Z,94.81
2023-04-02T02:44:28.676Z,94.26
2023-04-02T02:47:06.052Z,94.69
2023-04-02T02:49:36.077Z,94.68
2023-04-02T02:52:08.465Z,94.42
2023-04-02T02:54:42.198Z,94.70
2023-04-02T02:57:13.821Z,94.80
2023-04-02T02:59:42.372Z,94.21
2023-04-02T03:02:09.076Z,94.36
2023-04-02T03:04:36.278Z,94.26
2023-04-02T03:07:05.917Z,94.18
2023-04-02T03:09:39.157Z,94.43
2023-04-02T03:12:37.863Z,94.01
2023-04-02T03:15:32.032Z,94.47
2023-04-02T03:18:15.270Z,94.45
2023-04-02T03:20:52.587Z,93.87
2023-04-02T03:23:35.199Z,94.24
2023-04-02T03:26:04.254Z,94.19
2023-04-02T03:28:39.360Z,94.35
2023-04-02T03:31:10.771Z,94.28
2023-04-02T03:33:46.000Z,93.80
2023-04-02T03:36:23.234Z,93.85
2023-04-02T03:39:05.908Z,93.98
2023-04-02T03:41:45.203Z,93.80
2023-04-02T03:44:22.008Z,93.71
2023-04-02T03:46:57.411Z,93.67
2023-04-02T03:49:31.296Z,93.70
2023-04-02T03:52:10.985Z,93.73
2023-04-02T03:54:38.371Z,93.63
2023-04-02T03:57:09.346Z,93.33
2023-04-02T03:59:48.662Z,93.60
2023-04-02T04:02:26.906Z,93.04
2023-04-02T04:04:55.679Z,93.38
2023-04-02T04:07:36.404Z,93.30
2023-04-02T04:10:04.520Z,92.80
2023-04-02T04:12:39.830Z,92.90
2023-04-02T04:15:06.390Z,92.55
2023-04-02T04:17:38.503Z,92.62
2023-04-02T04:20:22.159Z,92.77
2023-04-02T04:22:55.935Z,92.59
2023-04-02T04:25:30.285Z,92.23
2023-04-02T04:28:13.794Z,91.86
2023-04-02T04:30:52.793Z,91.58
2023-04-02T04:33:26.020Z,92.03
2023-04-02T04:36:01.405Z,91.55
2023-04-02T04:38:39.184Z,91.00
2023-04-02T04:41:13.166Z,91.20
2023-04-02T04:43:52.262Z,90.68
2023-04-02T04:46:25.984Z,90.89
2023-04-02T04:49:00.515Z,90.35
2023-04-02T04:51:37.220Z,90.50
2023-04-02T04:54:03.694Z,90.81
2023-04-02T04:56:32.267Z,90.70
2023-04-02T04:59:18.307Z,90.82
2023-04-02T05:01:55.686Z,90.53
2023-04-02T05:04:29.051Z,91.00
2023-04-02T05:07:07.299Z,90.67
2023-04-02T05:09:40.327Z,89.98
2023-04-02T05:12:22.268Z,89.39
2023-04-02T05:15:01.440Z,88.98
2023-04-02T05:17:46.435Z,88.82
2023-04-02T05:20:21.289Z,88.07
2023-04-02T05:23:09.435Z,88.30
2023-04-02T05:25:37.810Z,88.20
2023-04-02T05:28:19.272Z,87.63
2023-04-02T05:31:08.945Z,88.18
2023-04-02T05:33:36.458Z,88.27
2023-04-02T05:36:12.650Z,88.34
2023-04-02T05:38:46.327Z,88.21
2023-04-02T05:41:36.801Z,88.33
2023-04-02T05:44:12.870Z,87.90
2023-04-02T05:46:49.022Z,88.51
2023-04-02T05:49:42.374Z,87.84
2023-04-02T05:52:15.838Z,87.73
2023-04-02T05:55:04.936Z,87.87
2023-04-02T05:57:44.594Z,87.48
2023-04-02T06:00:23.529Z,87.94
2023-04-02T06:03:00.941Z,86.74
2023-04-02T06:05:36.170Z,87.25
2023-04-02T06:08:11.229Z,87.47
2023-04-02T06:10:48.879Z,87.35
2023-04-02T06:13:19.670Z,87.39
2023-04-02T06:15:47.906Z,86.96
2023-04-02T06:18:24.924Z,87.56
2023-04-02T06:20:51.775Z,87.14
2023-04-02T06:23:24.378Z,87.01
2023-04-02T06:26:09.928Z,86.79
2023-04-02T06:28:46.567Z,86.46
2023-04-02T06:31:27.687Z,87.26
2023-04-02T06:33:56.213Z,87.09
2023-04-02T06:36:25.799Z,87.25
2023-04-02T06:38:57.501Z,86.83
2023-04-02T06:41:24.784Z,86.92
2023-04-02T06:43:56.569Z,86.25
2023-04-02T06:46:44.612Z,86.40
2023-04-02T06:49:17.411Z,86.12
2023-04-02T06:51:45.875Z,86.63
2023-04-02T06:54:15.580Z,86.16
2023-04-02T06:56:46.664Z,86.59
2023-04-02T06:59:14.715Z,86.56
2023-04-02T07:01:51.857Z,86.12
2023-04-02T07:04:20.395Z,86.67
2023-04-02T07:06:47.054Z,86.15
2023-04-02T07:09:13.572Z,86.04
2023-04-02T07:11:39.945Z,86.31
2023-04-02T07:14:06.426Z,86.63
2023-04-02T07:16:34.486Z,86.58
2023-04-02T07:19:01.095Z,86.26
2023-04-02T07:21:27.671Z,86.21
2023-04-02T07:23:54.506Z,86.38
2023-04-02T07:26:25.265Z,86.17
2023-04-02T07:28:51.657Z,86.20
2023-04-02T07:31:21.443Z,85.71
2023-04-02T07:33:47.980Z,85.39
2023-04-02T07:36:17.292Z,85.62
2023-04-02T07:38:44.015Z,85.49
2023-04-02T07:41:11.222Z,85.44
2023-04-02T07:43:38.461Z,85.63
2023-04-02T07:46:05.834Z,86.06
2023-04-02T07:48:32.651Z,85.85
2023-04-02T07:51:00.492Z,86.13
2023-04-02T07:53:34.220Z,86.06
2023-04-02T07:56:02.909Z,85.58
2023-04-02T07:58:30.821Z,85.69
2023-04-02T08:00:57.901Z,85.53
2023-04-02T08:03:24.535Z,86.03
2023-04-02T08:05:53.041Z,85.73
2023-04-02T08:08:20.830Z,85.50
2023-04-02T08:10:48.065Z,85.30
2023-04-02T08:13:16.120Z,85.43
2023-04-02T08:15:42.769Z,85.10
2023-04-02T08:18:10.006Z,84.89
2023-04-02T08:20:36.862Z,85.36
2023-04-02T08:23:03.671Z,84.64
2023-04-02T08:25:30.306Z,84.07
2023-04-02T08:27:56.888Z,84.47
2023-04-02T08:30:23.357Z,84.87
2023-04-02T08:32:49.898Z,84.54
2023-04-02T08:35:17.035Z,84.17
2023-04-02T08:37:43.692Z,84.12
2023-04-02T08:40:34.132Z,83.82
2023-04-02T08:43:17.859Z,83.86
2023-04-02T08:46:10.666Z,83.56
2023-04-02T08:48:42.580Z,83.60
2023-04-02T08:51:22.734Z,83.06
2023-04-02T08:53:50.384Z,82.61
2023-04-02T08:56:29.168Z,82.41
2023-04-02T08:59:03.334Z,82.76
2023-04-02T09:02:01.803Z,83.10
2023-04-02T09:04:28.522Z,82.64
2023-04-02T09:06:56.606Z,82.58
2023-04-02T09:09:24.422Z,82.20
2023-04-02T09:12:04.315Z,82.64
2023-04-02T09:14:38.416Z,82.52
2023-04-02T09:17:12.782Z,81.85
2023-04-02T09:19:44.438Z,82.37
2023-04-02T09:22:29.394Z,82.12
2023-04-02T09:24:58.456Z,81.42
2023-04-02T09:27:28.258Z,80.50
2023-04-02T09:30:06.644Z,80.85
2023-04-02T09:32:49.640Z,80.41
2023-04-02T09:35:26.930Z,79.67
2023-04-02T09:38:08.909Z,79.45
2023-04-02T09:40:43.043Z,79.31
2023-04-02T09:43:13.490Z,79.41
2023-04-02T09:45:42.910Z,79.85
2023-04-02T09:48:22.848Z,79.71
2023-04-02T09:50:49.394Z,79.66
2023-04-02T09:53:29.908Z,79.02
2023-04-02T09:56:12.689Z,79.05
2023-04-02T09:58:41.038Z,78.58
2023-04-02T10:01:29.398Z,77.67
2023-04-02T10:03:56.463Z,77.03
2023-04-02T10:06:23.058Z,76.50
2023-04-02T10:08:49.494Z,75.00
2023-04-02T10:11:46.437Z,74.91
2023-04-02T10:14:22.909Z,74.56
2023-04-02T10:16:58.166Z,73.21
2023-04-02T10:19:52.253Z,72.00
2023-04-02T10:22:21.602Z,72.38
2023-04-02T10:24:48.893Z,71.87
2023-04-02T10:27:29.306Z,70.74
2023-04-02T10:30:14.504Z,69.00
2023-04-02T10:32:46.656Z,68.95
2023-04-02T10:35:41.651Z,67.61
2023-04-02T10:38:19.185Z,66.84
2023-04-02T10:44:16.744Z,67.81
2023-04-02T10:46:52.006Z,65.66
2023-04-02T10:49:27.654Z,65.15
2023-04-02T10:52:25.021Z,64.49
2023-04-02T10:55:04.482Z,64.14
2023-04-02T10:57:38.779Z,62.99
2023-04-02T11:00:16.552Z,64.75
2023-04-02T11:03:07.282Z,63.76
2023-04-02T11:05:45.618Z,61.69
2023-04-02T11:08:22.897Z,62.65
2023-04-02T11:10:56.666Z,60.02
2023-04-02T11:13:31.148Z,59.72
2023-04-02T11:15:57.889Z,59.96
2023-04-02T11:18:28.580Z,60.39
2023-04-02T11:20:58.254Z,58.14
2023-04-02T11:23:29.354Z,59.17
2023-04-02T11:26:27.769Z,59.76
2023-04-02T11:29:13.760Z,59.15
2023-04-02T11:31:41.208Z,57.84
2023-04-02T11:34:34.753Z,57.55
2023-04-02T11:37:03.470Z,58.22
2023-04-02T11:39:53.423Z,58.20
2023-04-02T11:42:19.774Z,57.11
2023-04-02T11:44:46.150Z,56.48
2023-04-02T11:47:18.353Z,55.60
2023-04-02T11:50:04.639Z,55.67
2023-04-02T11:52:38.062Z,55.42
2023-04-02T11:55:20.349Z,55.61
2023-04-02T11:57:55.753Z,55.54
2023-04-02T12:00:47.286Z,53.51
2023-04-02T12:03:32.344Z,54.88
2023-04-02T12:06:13.271Z,52.41
2023-04-02T12:09:05.928Z,53.58
2023-04-02T12:11:35.043Z,53.55
2023-04-02T12:14:06.717Z,53.43
2023-04-02T12:16:34.744Z,53.36
2023-04-02T12:19:01.484Z,52.46
2023-04-02T12:21:29.444Z,52.72
2023-04-02T12:23:59.048Z,51.59
2023-04-02T12:26:30.270Z,52.70
2023-04-02T12:29:21.762Z,53.13
2023-04-02T12:31:48.457Z,51.97
2023-04-02T12:34:17.869Z,50.45
2023-04-02T12:37:00.041Z,51.72
2023-04-02T12:39:28.353Z,51.08
2023-04-02T12:41:55.832Z,50.89
2023-04-02T12:44:27.623Z,49.26
2023-04-02T12:46:54.722Z,49.75
2023-04-02T12:49:43.761Z,48.62
2023-04-02T12:52:16.759Z,47.84
2023-04-02T12:54:46.927Z,48.04
2023-04-02T12:57:40.223Z,48.59
2023-04-02T13:00:22.042Z,48.49
2023-04-02T13:02:50.596Z,49.75
2023-04-02T13:05:35.810Z,49.19
2023-04-02T13:08:03.680Z,48.79
2023-04-02T13:10:30.295Z,49.34
2023-04-02T13:12:59.711Z,48.14
2023-04-02T13:15:32.033Z,47.81
2023-04-02T13:18:22.010Z,48.85
2023-04-02T13:21:05.560Z,48.84
2023-04-02T13:23:32.579Z,47.57
2023-04-02T13:26:26.254Z,47.16
2023-04-02T13:29:25.021Z,47.04
2023-04-02T13:31:53.497Z,45.80
2023-04-02T13:34:20.350Z,47.49
2023-04-02T13:36:47.144Z,45.32
2023-04-02T13:39:14.081Z,47.68
2023-04-02T13:41:45.636Z,46.50
2023-04-02T13:44:20.205Z,45.94
2023-04-02T13:46:46.959Z,47.02
2023-04-02T13:49:13.398Z,46.99
2023-04-02T13:51:46.897Z,46.29
2023-04-02T13:54:46.824Z,45.72
2023-04-02T13:57:14.218Z,45.15
2023-04-02T13:59:40.720Z,46.09
2023-04-02T14:02:17.673Z,44.80
2023-04-02T14:05:03.825Z,44.42
2023-04-02T14:07:38.080Z,43.07
2023-04-02T14:10:32.490Z,44.84
2023-04-02T14:13:32.795Z,43.92
2023-04-02T14:16:31.692Z,44.12
2023-04-02T14:19:27.948Z,44.59
2023-04-02T14:22:21.928Z,44.15
2023-04-02T14:25:07.890Z,43.62
2023-04-02T14:27:52.682Z,43.24
2023-04-02T14:30:48.790Z,44.21
2023-04-02T14:33:49.229Z,43.46
2023-04-02T14:36:23.957Z,43.41
2023-04-02T14:39:09.111Z,43.62
2023-04-02T14:41:53.753Z,42.59
2023-04-02T14:44:25.343Z,42.73
2023-04-02T14:46:58.550Z,42.25
2023-04-02T14:49:31.344Z,42.00
2023-04-02T14:52:06.257Z,42.10
2023-04-02T14:55:02.178Z,43.21
2023-04-02T14:57:37.469Z,41.93
2023-04-02T15:00:20.409Z,43.48
2023-04-02T15:02:53.115Z,43.31
2023-04-02T15:05:28.053Z,43.44
2023-04-02T15:08:15.536Z,43.13
2023-04-02T15:10:50.230Z,41.30
2023-04-02T15:13:22.280Z,41.65
2023-04-02T15:15:57.114Z,43.19
2023-04-02T15:18:25.409Z,41.90
2023-04-02T15:20:57.671Z,42.67
2023-04-02T15:23:55.917Z,43.82
2023-04-02T15:26:41.802Z,44.00
2023-04-02T15:29:37.902Z,43.66
2023-04-02T15:32:27.633Z,43.71
2023-04-02T15:35:14.696Z,43.83
2023-04-02T15:38:08.779Z,42.74
2023-04-02T15:40:48.586Z,42.43
2023-04-02T15:43:37.181Z,43.64
2023-04-02T15:46:23.015Z,44.32
2023-04-02T15:49:07.771Z,44.62
2023-04-02T15:52:05.646Z,44.56
2023-04-02T15:54:56.707Z,44.47
2023-04-02T15:57:50.343Z,44.83
2023-04-02T16:00:33.382Z,44.42
2023-04-02T16:03:24.974Z,45.30
2023-04-02T16:06:18.787Z,45.48
2023-04-02T16:08:57.202Z,45.19
2023-04-02T16:11:24.884Z,45.04
2023-04-02T16:13:59.243Z,45.43
2023-04-02T16:16:32.998Z,46.00
2023-04-02T16:19:20.933Z,46.59
2023-04-02T16:22:24.619Z,46.95
2023-04-02T16:25:00.765Z,46.90
2023-04-02T16:27:31.674Z,47.70
2023-04-02T16:30:43.326Z,48.06
2023-04-02T16:33:28.692Z,47.08
2023-04-02T16:36:26.673Z,46.86
2023-04-02T16:39:03.337Z,46.10
2023-04-02T16:41:50.858Z,47.47
2023-04-02T16:44:31.030Z,47.90
2023-04-02T16:47:18.333Z,48.70
2023-04-02T16:50:03.259Z,48.62
2023-04-02T16:52:39.769Z,49.20
2023-04-02T16:55:29.472Z,48.96
2023-04-02T16:58:26.402Z,48.96
2023-04-02T17:01:04.837Z,48.95
2023-04-02T17:03:46.577Z,49.20
2023-04-02T17:06:13.000Z,49.98
2023-04-02T17:08:43.731Z,50.90
2023-04-02T17:11:22.923Z,50.20
2023-04-02T17:14:05.806Z,50.63
2023-04-02T17:16:42.986Z,51.53
2023-04-02T17:19:12.528Z,51.09
2023-04-02T17:21:42.301Z,50.81
2023-04-02T17:24:25.530Z,51.17
2023-04-02T17:26:58.489Z,50.26
2023-04-02T17:29:48.108Z,51.15
2023-04-02T17:32:21.678Z,51.08
2023-04-02T17:34:48.147Z,51.42
2023-04-02T17:37:39.637Z,51.21
2023-04-02T17:40:22.782Z,51.66
2023-04-02T17:42:52.134Z,51.21
2023-04-02T17:45:34.954Z,51.88
2023-04-02T17:48:16.485Z,51.82
2023-04-02T17:51:10.969Z,51.85
2023-04-02T17:53:44.430Z,52.67
2023-04-02T17:56:28.790Z,52.89
2023-04-02T17:59:16.275Z,52.87
2023-04-02T18:01:46.827Z,53.32
2023-04-02T18:04:26.767Z,53.26
2023-04-02T18:06:53.046Z,53.56
2023-04-02T18:09:39.300Z,53.83
2023-04-02T18:12:16.091Z,54.16
2023-04-02T18:15:00.529Z,54.51
2023-04-02T18:17:29.917Z,54.72
2023-04-02T18:20:28.682Z,55.16
2023-04-02T18:23:26.647Z,55.27
2023-04-02T18:26:18.766Z,55.79
2023-04-02T18:29:11.478Z,55.88
2023-04-02T18:32:08.538Z,56.19
2023-04-02T18:34:52.775Z,56.16
2023-04-02T18:37:28.075Z,56.33
2023-04-02T18:40:19.412Z,56.58
2023-04-02T18:43:08.654Z,57.14
2023-04-02T18:45:56.227Z,57.40
2023-04-02T18:48:40.818Z,57.53
2023-04-02T18:51:15.477Z,57.54
2023-04-02T18:53:43.134Z,58.03
2023-04-02T18:56:19.677Z,58.32
2023-04-02T18:58:49.420Z,58.77
2023-04-02T19:01:22.367Z,58.76
2023-04-02T19:03:52.476Z,59.04
2023-04-02T19:06:25.635Z,59.19
2023-04-02T19:08:59.547Z,59.00
2023-04-02T19:11:31.089Z,59.48
2023-04-02T19:14:13.785Z,59.44
2023-04-02T19:16:59.085Z,59.44
2023-04-02T19:19:28.153Z,59.89
2023-04-02T19:22:08.557Z,60.32
2023-04-02T19:24:41.374Z,60.40
2023-04-02T19:27:47.862Z,60.35
2023-04-02T19:30:29.240Z,60.68
2023-04-02T19:33:26.817Z,60.89
2023-04-02T19:36:03.116Z,60.99
2023-04-02T19:38:41.565Z,61.19
2023-04-02T19:41:36.185Z,61.54
2023-04-02T19:44:02.794Z,61.65
2023-04-02T19:46:29.381Z,61.93
2023-04-02T19:49:04.685Z,62.15
2023-04-02T19:51:31.187Z,62.50
2023-04-02T19:53:57.602Z,62.71
2023-04-02T19:56:24.013Z,63.04
2023-04-02T19:58:50.664Z,63.32
2023-04-02T20:01:17.151Z,63.41
2023-04-02T20:03:43.744Z,63.31
2023-04-02T20:06:10.518Z,63.67
2023-04-02T20:08:36.992Z,63.74
2023-04-02T20:11:03.507Z,64.10
2023-04-02T20:13:29.950Z,64.20
2023-04-02T20:16:01.295Z,64.41
2023-04-02T20:18:28.741Z,64.42
2023-04-02T20:20:55.380Z,64.67
2023-04-02T20:23:21.902Z,64.56
2023-04-02T20:25:53.158Z,64.51
2023-04-02T20:28:23.660Z,64.72
2023-04-02T20:30:51.212Z,64.73
2023-04-02T20:33:19.320Z,64.61
2023-04-02T20:35:45.912Z,64.71
2023-04-02T20:38:12.699Z,65.03
2023-04-02T20:40:41.381Z,65.22
2023-04-02T20:43:08.979Z,65.09
2023-04-02T20:45:36.075Z,65.22
2023-04-02T20:48:03.359Z,65.12
2023-04-02T20:50:30.119Z,65.43
2023-04-02T20:52:59.979Z,65.45
2023-04-02T20:55:26.370Z,65.76
2023-04-02T20:57:53.747Z,65.62
2023-04-02T21:00:20.982Z,65.80
2023-04-02T21:02:47.361Z,65.61
2023-04-02T21:05:13.963Z,65.68
2023-04-02T21:07:40.452Z,66.07
2023-04-02T21:10:07.348Z,65.94
2023-04-02T21:12:33.749Z,66.12
2023-04-02T21:15:02.468Z,65.90
2023-04-02T21:17:29.687Z,66.49
2023-04-02T21:19:56.142Z,66.24
2023-04-02T21:22:22.758Z,66.46
2023-04-02T21:24:49.276Z,66.40
2023-04-02T21:27:16.689Z,66.27
2023-04-02T21:29:43.058Z,66.78
2023-04-02T21:32:20.967Z,66.42
2023-04-02T21:34:48.410Z,66.71
2023-04-02T21:37:14.930Z,66.92
2023-04-02T21:39:41.478Z,67.11
2023-04-02T21:42:07.936Z,66.56
2023-04-02T21:44:34.338Z,66.89
2023-04-02T21:47:00.861Z,66.88
2023-04-02T21:49:27.888Z,66.78
2023-04-02T21:51:54.292Z,66.96
2023-04-02T21:54:21.113Z,66.92
2023-04-02T21:56:48.838Z,66.85
2023-04-02T21:59:17.175Z,67.47
2023-04-02T22:01:46.811Z,67.52
2023-04-02T22:04:22.059Z,67.20
2023-04-02T22:06:49.151Z,67.28
2023-04-02T22:09:18.669Z,67.40
2023-04-02T22:11:50.709Z,67.64
2023-04-02T22:14:17.303Z,67.01
2023-04-02T22:16:43.838Z,67.27
2023-04-02T22:19:13.682Z,67.02
2023-04-02T22:21:41.043Z,67.77
2023-04-02T22:24:09.331Z,67.62
2023-04-02T22:26:36.451Z,67.53
2023-04-02T22:29:03.298Z,67.69
2023-04-02T22:31:33.207Z,67.74
2023-04-02T22:34:00.899Z,67.79
2023-04-02T22:36:28.658Z,68.06
2023-04-02T22:38:56.831Z,67.79
2023-04-02T22:41:32.797Z,68.23
2023-04-02T22:44:00.906Z,68.13
2023-04-02T22:46:28.922Z,68.13
2023-04-02T22:48:56.218Z,68.49
2023-04-02T22:51:24.660Z,68.65
2023-04-02T22:53:53.775Z,68.70
2023-04-02T22:56:22.780Z,68.74
2023-04-02T22:58:49.578Z,68.43
2023-04-02T23:01:26.029Z,68.97
2023-04-02T23:03:54.451Z,68.74
2023-04-02T23:06:22.132Z,69.11
2023-04-02T23:08:48.545Z,68.86
2023-04-02T23:11:17.609Z,68.94
2023-04-02T23:13:44.904Z,68.75
2023-04-02T23:16:13.854Z,69.00
2023-04-02T23:18:42.418Z,69.50
2023-04-02T23:21:09.820Z,69.17
2023-04-02T23:23:36.285Z,69.08
2023-04-02T23:26:10.010Z,68.80
2023-04-02T23:28:38.006Z,69.12
2023-04-02T23:31:06.800Z,69.33
2023-04-02T23:33:34.216Z,69.23
2023-04-02T23:36:00.760Z,69.06
2023-04-02T23:38:27.476Z,69.90
2023-04-02T23:40:53.967Z,69.37
2023-04-02T23:43:20.718Z,70.25
2023-04-02T23:45:51.516Z,69.67
2023-04-02T23:48:18.053Z,69.79
2023-04-02T23:50:45.448Z,69.42
2023-04-02T23:53:13.074Z,69.38
2023-04-02T23:55:40.407Z,70.12
2023-04-02T23:58:06.900Z,69.55
